Time;durP1;ratioP1;P1;durP2;ratioP2;P2;SDS_P1;SDS_P2;PMS_P1;PMS_P2;Temp;Humidity;BMP_temperature;BMP_pressure;BME280_temperature;BME280_humidity;BME280_pressure;Samples;Min_cycle;Max_cycle;Signal;HPM_P1;HPM_P2
2021/03/21 00:00:26;;;;;;;48.42;42.30;;;18.50;65.20;;;;;;1039970;28;20032;-59
2021/03/21 00:00:59;;;;;;;52.60;44.86;;;18.50;65.20;;;;;;1038785;28;20104;-59
2021/03/21 00:01:29;;;;;;;54.62;43.16;;;18.50;65.20;;;;;;1040067;28;20021;-61
2021/03/21 00:02:00;;;;;;;51.70;42.25;;;18.50;65.20;;;;;;1039422;28;20021;-59
2021/03/21 00:02:31;;;;;;;50.92;42.20;;;18.50;65.30;;;;;;1039833;28;20623;-59
2021/03/21 00:03:02;;;;;;;54.85;43.33;;;18.50;65.30;;;;;;1039717;28;20128;-59
2021/03/21 00:03:33;;;;;;;59.86;42.74;;;18.50;65.20;;;;;;1039878;28;20025;-59
2021/03/21 00:04:04;;;;;;;52.84;41.96;;;18.50;65.20;;;;;;1040143;28;20042;-59
2021/03/21 00:04:35;;;;;;;54.76;44.76;;;18.50;65.20;;;;;;1039970;28;20481;-59
2021/03/21 00:05:07;;;;;;;53.83;42.35;;;18.50;65.20;;;;;;1035710;28;20037;-59
2021/03/21 00:05:38;;;;;;;57.50;44.30;;;18.50;65.10;;;;;;1031725;28;20034;-59
2021/03/21 00:06:08;;;;;;;51.78;43.88;;;18.50;65.20;;;;;;1031971;28;20026;-59
2021/03/21 00:06:39;;;;;;;53.17;43.17;;;18.50;65.30;;;;;;1031991;28;20323;-59
2021/03/21 00:07:10;;;;;;;47.63;41.37;;;18.50;65.20;;;;;;1039955;28;20029;-59
2021/03/21 00:07:41;;;;;;;55.45;42.05;;;18.50;65.20;;;;;;1040054;28;20337;-59
2021/03/21 00:08:21;;;;;;;51.92;42.83;;;18.50;65.20;;;;;;1035944;28;20065;-58
2021/03/21 00:08:51;;;;;;;52.28;41.54;;;18.50;65.30;;;;;;1034577;28;20830;-59
2021/03/21 00:09:22;;;;;;;52.40;40.40;;;18.50;65.90;;;;;;1027867;28;20051;-60
2021/03/21 00:09:53;;;;;;;55.70;42.97;;;18.40;65.20;;;;;;1033251;28;20037;-59
2021/03/21 00:10:25;;;;;;;53.53;42.75;;;18.40;65.10;;;;;;1035979;28;20022;-59
2021/03/21 00:11:02;;;;;;;52.76;42.20;;;18.40;65.10;;;;;;1036292;28;20033;-60
2021/03/21 00:11:33;;;;;;;49.66;42.04;;;18.40;65.10;;;;;;1038890;28;20021;-59
2021/03/21 00:12:04;;;;;;;51.78;41.64;;;18.40;65.10;;;;;;1035918;28;20096;-59
2021/03/21 00:12:35;;;;;;;52.32;41.78;;;18.40;65.10;;;;;;1036022;28;20041;-59
2021/03/21 00:13:06;;;;;;;51.63;41.20;;;18.40;65.20;;;;;;1035977;28;20033;-59
2021/03/21 00:13:37;;;;;;;53.68;42.14;;;18.40;65.20;;;;;;1035956;28;20018;-59
2021/03/21 00:14:08;;;;;;;51.35;42.50;;;18.40;65.20;;;;;;1035848;28;20046;-60
2021/03/21 00:14:38;;;;;;;56.17;41.65;;;18.40;65.20;;;;;;1035671;28;20026;-59
2021/03/21 00:15:09;;;;;;;50.20;42.30;;;18.40;65.20;;;;;;1032306;28;20030;-59
2021/03/21 00:15:40;;;;;;;50.08;40.72;;;18.40;65.20;;;;;;1032112;28;20533;-59
2021/03/21 00:16:11;;;;;;;54.00;41.15;;;18.40;65.10;;;;;;1032244;28;20026;-59
2021/03/21 00:16:42;;;;;;;50.40;41.95;;;18.40;65.20;;;;;;1035949;28;20030;-59
2021/03/21 00:17:12;;;;;;;48.05;41.80;;;18.40;65.20;;;;;;1035873;28;20026;-59
2021/03/21 00:17:43;;;;;;;52.65;41.65;;;18.40;65.20;;;;;;1039950;28;20029;-59
2021/03/21 00:18:14;;;;;;;52.80;41.45;;;18.40;65.30;;;;;;1039968;28;20037;-59
2021/03/21 00:18:46;;;;;;;48.95;41.65;;;18.40;65.30;;;;;;1039938;28;20028;-59
2021/03/21 00:19:17;;;;;;;51.22;41.02;;;18.40;65.30;;;;;;1039478;28;20079;-60
2021/03/21 00:19:47;;;;;;;48.88;41.03;;;18.40;65.20;;;;;;1035803;28;20456;-59
2021/03/21 00:20:21;;;;;;;49.22;40.03;;;18.40;65.20;;;;;;1035961;28;20039;-60
2021/03/21 00:20:53;;;;;;;49.36;39.58;;;18.40;65.20;;;;;;1035991;28;20022;-60
2021/03/21 00:21:24;;;;;;;49.62;39.88;;;18.40;66.00;;;;;;1035902;28;20518;-59
2021/03/21 00:21:54;;;;;;;51.14;39.82;;;18.40;65.30;;;;;;1035158;28;20036;-59
2021/03/21 00:22:25;;;;;;;49.83;39.58;;;18.40;65.20;;;;;;1032238;28;20029;-59
2021/03/21 00:22:56;;;;;;;47.20;39.72;;;18.40;65.10;;;;;;1035816;28;20029;-60
2021/03/21 00:23:27;;;;;;;50.76;39.44;;;18.40;65.20;;;;;;1036044;28;20121;-59
2021/03/21 00:23:58;;;;;;;50.64;40.30;;;18.40;65.10;;;;;;1035810;28;20092;-60
2021/03/21 00:24:29;;;;;;;46.28;39.75;;;18.30;65.10;;;;;;1031743;28;20468;-59
2021/03/21 00:25:00;;;;;;;53.22;42.15;;;18.40;65.20;;;;;;1031986;28;20050;-59
2021/03/21 00:25:32;;;;;;;48.72;39.13;;;18.40;65.20;;;;;;1032012;28;20023;-60
2021/03/21 00:26:04;;;;;;;47.76;39.54;;;18.40;65.20;;;;;;1031886;28;20022;-59
2021/03/21 00:26:36;;;;;;;53.14;40.52;;;18.30;65.10;;;;;;1032016;28;20018;-59
2021/03/21 00:27:07;;;;;;;47.76;39.24;;;18.30;65.90;;;;;;1035998;28;20438;-59
2021/03/21 00:27:38;;;;;;;48.12;39.92;;;18.30;65.20;;;;;;1035987;28;20141;-59
2021/03/21 00:28:12;;;;;;;48.75;39.88;;;18.30;65.20;;;;;;1035698;28;20094;-59
2021/03/21 00:28:43;;;;;;;51.18;40.54;;;18.30;65.20;;;;;;1031824;28;20502;-59
2021/03/21 00:29:13;;;;;;;49.88;40.55;;;18.30;65.20;;;;;;1035954;28;20022;-60
2021/03/21 00:29:44;;;;;;;48.08;38.92;;;18.30;65.20;;;;;;1035867;28;20068;-59
2021/03/21 00:30:19;;;;;;;50.42;39.05;;;18.30;65.10;;;;;;1036109;28;20383;-59
2021/03/21 00:30:51;;;;;;;48.52;40.10;;;18.30;65.10;;;;;;1035293;28;20064;-59
2021/03/21 00:31:21;;;;;;;48.12;38.52;;;18.30;65.10;;;;;;1035834;28;20018;-59
2021/03/21 00:31:52;;;;;;;47.53;39.35;;;18.30;65.10;;;;;;1035924;28;20026;-59
2021/03/21 00:32:23;;;;;;;45.65;39.22;;;18.30;65.10;;;;;;1035870;28;20053;-59
2021/03/21 00:32:54;;;;;;;47.38;37.85;;;18.30;65.00;;;;;;1035870;28;20014;-59
2021/03/21 00:33:28;;;;;;;50.56;37.62;;;18.30;65.10;;;;;;1031746;28;20084;-59
2021/03/21 00:33:59;;;;;;;49.34;38.10;;;18.30;65.10;;;;;;1028688;28;20379;-58
2021/03/21 00:34:30;;;;;;;49.97;39.28;;;18.30;65.10;;;;;;1035787;28;20022;-58
2021/03/21 00:35:01;;;;;;;51.97;38.17;;;18.30;65.10;;;;;;1035651;28;20089;-59
2021/03/21 00:35:32;;;;;;;44.20;37.20;;;18.30;65.10;;;;;;1032264;28;20057;-58
2021/03/21 00:36:05;;;;;;;45.70;38.90;;;18.30;65.10;;;;;;1035669;28;20052;-59
2021/03/21 00:36:35;;;;;;;50.83;37.78;;;18.30;65.10;;;;;;1035672;28;20081;-59
2021/03/21 00:37:06;;;;;;;48.43;38.53;;;18.30;65.10;;;;;;1036491;28;20573;-59
2021/03/21 00:37:40;;;;;;;46.95;38.53;;;18.30;65.00;;;;;;1040050;28;20021;-59
2021/03/21 00:38:24;;;;;;;47.92;38.24;;;18.30;65.00;;;;;;1038692;28;20064;-59
2021/03/21 00:38:55;;;;;;;47.80;39.40;;;18.30;65.00;;;;;;1039594;28;20065;-61
2021/03/21 00:39:26;;;;;;;48.36;38.38;;;18.30;65.10;;;;;;1039910;28;20034;-59
2021/03/21 00:39:57;;;;;;;45.45;38.40;;;18.30;65.10;;;;;;1039868;28;20030;-59
2021/03/21 00:40:29;;;;;;;48.13;36.33;;;18.30;65.10;;;;;;1035601;28;20394;-59
2021/03/21 00:41:01;;;;;;;48.24;38.32;;;18.30;65.10;;;;;;1031710;28;20125;-59
2021/03/21 00:41:32;;;;;;;47.98;37.96;;;18.30;65.00;;;;;;1031797;28;20101;-58
2021/03/21 00:42:03;;;;;;;45.72;37.47;;;18.30;65.10;;;;;;1031879;28;20030;-59
2021/03/21 00:42:34;;;;;;;42.50;36.70;;;18.20;64.90;;;;;;1031644;28;20750;-59
2021/03/21 00:43:04;;;;;;;51.00;37.65;;;18.30;65.00;;;;;;1035904;28;20096;-60
2021/03/21 00:43:35;;;;;;;42.37;36.83;;;18.30;65.00;;;;;;1035517;28;20018;-59
2021/03/21 00:44:06;;;;;;;49.85;39.10;;;18.20;64.90;;;;;;1032287;28;20422;-59
2021/03/21 00:44:37;;;;;;;44.20;36.83;;;18.20;64.80;;;;;;1039883;28;20072;-59
2021/03/21 00:45:09;;;;;;;44.85;37.72;;;18.20;64.80;;;;;;1039850;28;20096;-60
2021/03/21 00:45:40;;;;;;;44.84;36.44;;;18.20;64.90;;;;;;1040051;28;20010;-59
2021/03/21 00:46:12;;;;;;;45.55;37.53;;;18.20;64.90;;;;;;1039224;28;20013;-59
2021/03/21 00:46:42;;;;;;;48.50;37.35;;;18.20;64.90;;;;;;1031806;28;20405;-59
2021/03/21 00:47:13;;;;;;;47.58;37.50;;;18.20;65.00;;;;;;1032177;28;20019;-59
2021/03/21 00:47:44;;;;;;;48.72;36.85;;;18.20;65.00;;;;;;1039988;28;20018;-59
2021/03/21 00:48:18;;;;;;;46.60;36.20;;;18.20;65.00;;;;;;1039923;28;20466;-60
2021/03/21 00:48:49;;;;;;;45.00;36.48;;;18.20;64.90;;;;;;1040046;28;20017;-59
2021/03/21 00:49:20;;;;;;;44.22;36.00;;;18.20;65.00;;;;;;1039275;28;20512;-59
2021/03/21 00:49:51;;;;;;;48.03;36.43;;;18.20;65.00;;;;;;1035207;28;20393;-59
2021/03/21 00:50:30;;;;;;;44.10;37.03;;;18.20;65.00;;;;;;1031718;28;20284;-59
2021/03/21 00:51:01;;;;;;;49.00;35.70;;;18.20;65.00;;;;;;1037038;28;20061;-59
2021/03/21 00:51:32;;;;;;;45.84;35.52;;;18.20;65.00;;;;;;1035967;28;20017;-59
2021/03/21 00:52:03;;;;;;;44.72;36.55;;;18.20;64.90;;;;;;1031621;28;20030;-59
2021/03/21 00:52:34;;;;;;;45.52;36.38;;;18.20;64.90;;;;;;1031555;28;20439;-59
2021/03/21 00:53:05;;;;;;;40.92;35.13;;;18.20;64.90;;;;;;1027723;28;20015;-59
2021/03/21 00:53:37;;;;;;;41.58;35.25;;;18.20;64.80;;;;;;1028157;28;20118;-59
2021/03/21 00:54:07;;;;;;;44.35;36.40;;;18.20;64.90;;;;;;1035846;28;20025;-59
2021/03/21 00:54:38;;;;;;;42.67;36.10;;;18.20;64.90;;;;;;1035916;28;20034;-60
2021/03/21 00:55:11;;;;;;;43.70;36.22;;;18.20;64.80;;;;;;1031431;28;20038;-59
2021/03/21 00:55:42;;;;;;;43.36;35.62;;;18.20;64.90;;;;;;1031863;28;20565;-59
2021/03/21 00:56:33;;;;;;;45.00;35.67;;;18.20;64.90;;;;;;1031924;28;20027;-59
2021/03/21 00:57:06;;;;;;;41.92;35.08;;;18.20;65.00;;;;;;1031988;28;20022;-58
2021/03/21 00:57:37;;;;;;;43.42;35.80;;;18.20;64.90;;;;;;1032193;28;20072;-59
2021/03/21 00:58:08;;;;;;;44.70;36.35;;;18.20;64.80;;;;;;1035972;28;20568;-59
2021/03/21 00:58:39;;;;;;;42.02;34.30;;;18.20;64.80;;;;;;1035754;28;20348;-59
2021/03/21 00:59:10;;;;;;;45.05;34.90;;;18.20;64.80;;;;;;1035861;28;20021;-60
2021/03/21 00:59:41;;;;;;;42.95;35.00;;;18.20;64.80;;;;;;1035853;28;20026;-58
2021/03/21 01:00:27;;;;;;;41.05;34.88;;;18.10;64.70;;;;;;1035768;28;20042;-59
2021/03/21 01:01:00;;;;;;;42.10;34.58;;;18.20;64.80;;;;;;1035793;28;20026;-59
2021/03/21 01:01:32;;;;;;;41.47;35.53;;;18.20;64.80;;;;;;1035816;28;20014;-59
2021/03/21 01:02:03;;;;;;;43.22;35.45;;;18.10;64.70;;;;;;1035803;28;20029;-58
2021/03/21 01:02:34;;;;;;;41.90;34.42;;;18.20;64.70;;;;;;1035203;28;20026;-58
2021/03/21 01:03:05;;;;;;;40.47;33.40;;;18.10;64.70;;;;;;1031964;28;20014;-59
2021/03/21 01:03:36;;;;;;;42.63;35.40;;;18.10;64.60;;;;;;1032100;28;20015;-58
2021/03/21 01:04:07;;;;;;;40.93;32.83;;;18.20;64.70;;;;;;1032173;28;20014;-58
2021/03/21 01:04:38;;;;;;;41.75;33.40;;;18.20;64.70;;;;;;1039925;28;20013;-57
2021/03/21 01:05:12;;;;;;;38.40;32.90;;;18.10;64.60;;;;;;1035723;28;20149;-60
2021/03/21 01:05:47;;;;;;;39.38;33.88;;;18.10;64.60;;;;;;1031728;28;20288;-59
2021/03/21 01:06:18;;;;;;;40.14;32.68;;;18.10;64.60;;;;;;1030592;28;20019;-58
2021/03/21 01:06:49;;;;;;;38.65;32.90;;;18.10;64.60;;;;;;1033081;28;20034;-58
2021/03/21 01:07:20;;;;;;;41.93;33.70;;;18.10;64.50;;;;;;1035712;28;20026;-59
2021/03/21 01:07:52;;;;;;;40.87;33.23;;;18.20;64.60;;;;;;1035722;28;20060;-59
2021/03/21 01:08:28;;;;;;;41.72;33.84;;;18.10;64.50;;;;;;1031483;28;20038;-59
2021/03/21 01:09:03;;;;;;;36.88;32.54;;;18.10;64.50;;;;;;1028651;28;20105;-58
2021/03/21 01:09:34;;;;;;;43.06;32.56;;;18.10;64.60;;;;;;1031820;28;20081;-59
2021/03/21 01:10:06;;;;;;;42.25;33.58;;;18.10;64.50;;;;;;1027691;28;20411;-58
2021/03/21 01:10:37;;;;;;;39.58;33.04;;;18.10;64.50;;;;;;1027710;28;20026;-60
2021/03/21 01:11:18;;;;;;;38.65;33.25;;;18.10;64.50;;;;;;1028202;28;20054;-59
2021/03/21 01:11:48;;;;;;;39.17;32.38;;;18.10;64.50;;;;;;1032065;28;20533;-59
2021/03/21 01:12:19;;;;;;;38.93;32.00;;;18.10;64.50;;;;;;1031952;28;20026;-59
2021/03/21 01:12:55;;;;;;;40.63;33.50;;;18.10;64.40;;;;;;1032179;28;20018;-58
2021/03/21 01:13:26;;;;;;;38.55;32.28;;;18.10;64.40;;;;;;1032220;28;20014;-58
2021/03/21 01:13:59;;;;;;;37.33;31.55;;;18.10;64.40;;;;;;1035503;28;20042;-59
2021/03/21 01:14:30;;;;;;;39.08;32.00;;;18.10;64.40;;;;;;1035735;28;20037;-58
2021/03/21 01:15:00;;;;;;;42.35;31.83;;;18.10;64.40;;;;;;1031836;28;20034;-59
2021/03/21 01:15:31;;;;;;;37.53;32.28;;;18.10;64.40;;;;;;1031743;28;20108;-59
2021/03/21 01:16:08;;;;;;;40.08;32.17;;;18.10;64.40;;;;;;1031765;28;20023;-59
2021/03/21 01:16:41;;;;;;;40.62;33.20;;;18.10;64.40;;;;;;1031975;28;20248;-59
2021/03/21 01:17:12;;;;;;;38.92;31.90;;;18.10;64.40;;;;;;1031974;28;20018;-59
2021/03/21 01:17:42;;;;;;;44.28;33.40;;;18.10;64.40;;;;;;1040046;28;20104;-58
2021/03/21 01:18:25;;;;;;;37.90;30.80;;;18.10;64.40;;;;;;1039916;28;20021;-59
2021/03/21 01:18:59;;;;;;;38.25;31.25;;;18.10;64.40;;;;;;1035728;28;20028;-58
2021/03/21 01:19:29;;;;;;;41.17;32.22;;;18.10;65.20;;;;;;1029532;28;20030;-59
2021/03/21 01:20:00;;;;;;;40.63;31.85;;;18.10;64.40;;;;;;1031693;28;20062;-59
2021/03/21 01:20:31;;;;;;;41.53;31.50;;;18.10;64.50;;;;;;1032388;28;20494;-59
2021/03/21 01:21:05;;;;;;;39.47;31.97;;;18.10;64.50;;;;;;1031606;28;20027;-59
2021/03/21 01:21:35;;;;;;;36.60;31.34;;;18.10;64.50;;;;;;1031357;28;20073;-59
2021/03/21 01:22:06;;;;;;;36.13;31.27;;;18.10;64.40;;;;;;1027795;28;20034;-59
2021/03/21 01:22:37;;;;;;;38.17;31.90;;;18.00;64.40;;;;;;1028936;28;20307;-58
2021/03/21 01:23:08;;;;;;;37.70;31.40;;;18.10;64.50;;;;;;1035787;28;20026;-59
2021/03/21 01:23:40;;;;;;;36.63;30.73;;;18.00;64.40;;;;;;1039908;28;20055;-59
2021/03/21 01:24:19;;;;;;;38.63;32.47;;;18.00;64.40;;;;;;1040039;28;20029;-59
2021/03/21 01:24:50;;;;;;;39.70;32.55;;;18.10;64.50;;;;;;1039792;28;20021;-59
2021/03/21 01:25:24;;;;;;;38.47;31.90;;;18.10;64.50;;;;;;1038375;28;20183;-58
2021/03/21 01:25:54;;;;;;;37.55;31.23;;;18.10;64.50;;;;;;1035613;28;20387;-59
2021/03/21 01:26:27;;;;;;;38.30;30.73;;;18.00;64.50;;;;;;1035652;28;20018;-58
2021/03/21 01:26:58;;;;;;;38.46;30.86;;;18.00;64.40;;;;;;1035066;28;20061;-59
2021/03/21 01:27:29;;;;;;;35.63;31.35;;;18.00;64.50;;;;;;1031953;28;20152;-59
2021/03/21 01:27:59;;;;;;;38.00;31.77;;;18.00;64.40;;;;;;1031984;28;20010;-58
2021/03/21 01:28:35;;;;;;;34.83;30.47;;;18.00;64.40;;;;;;1032043;28;20518;-60
2021/03/21 01:29:06;;;;;;;38.34;31.12;;;18.00;64.40;;;;;;1032195;28;20432;-58
2021/03/21 01:29:37;;;;;;;34.30;29.94;;;18.00;64.40;;;;;;1031912;28;20037;-60
2021/03/21 01:30:08;;;;;;;34.83;29.13;;;18.00;64.40;;;;;;1032150;28;20034;-59
2021/03/21 01:30:39;;;;;;;37.24;30.88;;;18.00;64.40;;;;;;1032057;28;20360;-59
2021/03/21 01:31:13;;;;;;;32.80;29.20;;;18.00;64.40;;;;;;1032146;28;20097;-59
2021/03/21 01:31:44;;;;;;;36.54;29.46;;;18.00;64.40;;;;;;1039913;28;20478;-60
2021/03/21 01:32:14;;;;;;;37.62;30.46;;;18.00;64.40;;;;;;1040075;28;20033;-59
2021/03/21 01:32:45;;;;;;;34.95;29.15;;;18.00;64.40;;;;;;1039876;28;20116;-59
2021/03/21 01:33:16;;;;;;;33.10;29.00;;;18.00;64.30;;;;;;1039519;28;20021;-59
2021/03/21 01:33:48;;;;;;;38.36;29.44;;;18.00;64.40;;;;;;1035933;28;20026;-59
2021/03/21 01:34:18;;;;;;;38.82;29.06;;;18.00;64.40;;;;;;1035403;28;20030;-59
2021/03/21 01:34:49;;;;;;;36.20;29.50;;;18.00;64.40;;;;;;1035873;28;20022;-59
2021/03/21 01:35:21;;;;;;;36.47;28.70;;;18.00;64.40;;;;;;1035914;28;20037;-60
2021/03/21 01:35:53;;;;;;;37.38;29.24;;;18.00;64.40;;;;;;1035904;28;20458;-59
2021/03/21 01:36:27;;;;;;;37.38;28.96;;;18.00;64.40;;;;;;1035269;28;20022;-59
2021/03/21 01:36:58;;;;;;;35.84;29.06;;;18.00;64.40;;;;;;1032635;28;20021;-59
2021/03/21 01:37:28;;;;;;;33.97;28.52;;;17.90;64.40;;;;;;1036019;28;20481;-59
2021/03/21 01:37:59;;;;;;;34.28;29.45;;;18.00;64.30;;;;;;1035305;28;20018;-59
2021/03/21 01:38:30;;;;;;;36.55;28.52;;;17.90;65.00;;;;;;1035752;28;20038;-59
2021/03/21 01:39:05;;;;;;;32.45;27.95;;;18.00;64.30;;;;;;1035521;28;20018;-59
2021/03/21 01:39:36;;;;;;;34.50;28.35;;;18.00;64.30;;;;;;1035841;28;20068;-59
2021/03/21 01:40:09;;;;;;;33.47;28.52;;;17.90;64.30;;;;;;1035726;28;20029;-59
2021/03/21 01:40:41;;;;;;;34.96;29.54;;;18.00;64.40;;;;;;1034674;28;20049;-59
2021/03/21 01:41:15;;;;;;;33.78;27.33;;;17.90;64.30;;;;;;1031727;28;20471;-59
2021/03/21 01:41:54;;;;;;;33.72;28.95;;;17.90;64.30;;;;;;1031653;28;20539;-59
2021/03/21 01:42:33;;;;;;;34.08;29.30;;;18.00;64.50;;;;;;1033756;28;20485;-59
2021/03/21 01:43:05;;;;;;;35.38;29.38;;;18.00;64.40;;;;;;1035718;28;20722;-59
2021/03/21 01:43:38;;;;;;;34.72;28.30;;;18.00;64.40;;;;;;1035527;28;20168;-60
2021/03/21 01:44:13;;;;;;;33.46;27.66;;;17.90;64.30;;;;;;1035761;28;20046;-59
2021/03/21 01:44:45;;;;;;;37.42;28.83;;;17.90;64.20;;;;;;1034729;28;20017;-59
2021/03/21 01:45:38;;;;;;;29.83;26.38;;;17.90;64.30;;;;;;1034370;28;20073;-59
2021/03/21 01:46:37;;;;;;;36.03;28.85;;;17.90;64.40;;;;;;1039844;28;20397;-59
2021/03/21 01:47:47;;;;;;;33.40;27.80;;;17.90;64.50;;;;;;1028000;28;20085;-59
2021/03/21 01:48:34;;;;;;;34.83;27.13;;;17.90;64.50;;;;;;1016308;29;20056;-60
2021/03/21 01:49:21;;;;;;;33.40;26.70;;;17.90;64.50;;;;;;1016400;29;20030;-59
2021/03/21 01:49:52;;;;;;;34.40;27.83;;;17.90;64.50;;;;;;1032836;28;20018;-59
2021/03/21 01:50:35;;;;;;;32.42;26.58;;;17.90;64.50;;;;;;1032739;28;20064;-59
2021/03/21 01:51:09;;;;;;;30.42;26.83;;;17.90;64.40;;;;;;1032892;28;20062;-59
2021/03/21 01:51:41;;;;;;;31.80;26.82;;;17.80;64.40;;;;;;1032796;28;20170;-59
2021/03/21 01:52:35;;;;;;;31.14;25.92;;;17.80;64.30;;;;;;1032657;28;20030;-59
2021/03/21 01:53:07;;;;;;;32.00;27.30;;;17.80;64.40;;;;;;1036533;28;20470;-59
2021/03/21 01:53:40;;;;;;;32.30;27.52;;;17.80;64.30;;;;;;1036338;28;20026;-59
2021/03/21 01:54:15;;;;;;;30.30;26.25;;;17.80;64.40;;;;;;1036547;28;20045;-59
2021/03/21 01:54:46;;;;;;;31.65;26.95;;;17.80;64.30;;;;;;1036580;28;20053;-59
2021/03/21 01:55:17;;;;;;;30.70;26.10;;;17.80;64.40;;;;;;1035400;28;20029;-59
2021/03/21 01:55:49;;;;;;;31.28;26.40;;;17.80;64.40;;;;;;1036421;28;20029;-60
2021/03/21 01:56:20;;;;;;;34.97;27.48;;;17.80;64.40;;;;;;1036456;28;20115;-59
2021/03/21 01:56:53;;;;;;;31.52;26.27;;;17.80;64.30;;;;;;1036343;28;20029;-59
2021/03/21 01:57:25;;;;;;;31.30;27.17;;;17.80;64.40;;;;;;1032401;28;20027;-59
2021/03/21 01:57:56;;;;;;;32.83;27.30;;;17.80;64.30;;;;;;1032289;28;20023;-60
2021/03/21 01:58:29;;;;;;;32.30;26.48;;;17.80;64.30;;;;;;1036442;28;20022;-59
2021/03/21 01:59:10;;;;;;;32.58;27.10;;;17.80;64.30;;;;;;1036931;28;20024;-59
2021/03/21 01:59:40;;;;;;;;;;;17.80;64.20;;;;;;1040992;28;20042;-60
2021/03/21 02:00:12;;;;;;;33.05;26.75;;;17.80;64.20;;;;;;1038723;28;19913;-59
2021/03/21 02:00:43;;;;;;;33.68;26.92;;;17.80;64.20;;;;;;1036370;28;20471;-59
2021/03/21 02:01:17;;;;;;;32.00;26.27;;;17.90;64.30;;;;;;1036634;28;20014;-59
2021/03/21 02:01:50;;;;;;;29.67;25.77;;;17.80;64.20;;;;;;1032268;28;20291;-59
2021/03/21 02:02:21;;;;;;;32.20;26.08;;;17.80;64.30;;;;;;1032359;28;20069;-59
2021/03/21 02:02:52;;;;;;;31.77;26.27;;;17.80;64.30;;;;;;1032515;28;20024;-60
2021/03/21 02:03:23;;;;;;;32.02;25.80;;;17.90;64.30;;;;;;1032524;28;20022;-59
2021/03/21 02:03:54;;;;;;;32.27;26.10;;;17.80;64.20;;;;;;1032514;28;20034;-60
2021/03/21 02:04:25;;;;;;;31.70;25.48;;;17.80;64.90;;;;;;1032795;28;20027;-59
2021/03/21 02:04:59;;;;;;;29.12;25.16;;;17.80;64.10;;;;;;1032822;28;20030;-58
2021/03/21 02:05:29;;;;;;;29.07;25.90;;;17.80;64.20;;;;;;1036416;28;20020;-60
2021/03/21 02:06:35;;;;;;;29.85;25.35;;;17.80;64.20;;;;;;1036475;28;20076;-59
2021/03/21 02:07:30;;;;;;;31.63;25.50;;;17.80;64.20;;;;;;1036396;28;20040;-59
2021/03/21 02:08:10;;;;;;;32.72;26.16;;;17.80;64.20;;;;;;1036323;28;20072;-59
2021/03/21 02:08:49;;;;;;;31.23;25.65;;;17.80;64.10;;;;;;1036553;28;20014;-60
2021/03/21 02:09:57;;;;;;;31.85;26.30;;;17.80;64.10;;;;;;1040659;28;20095;-60
2021/03/21 02:10:40;;;;;;;30.38;25.52;;;17.80;64.20;;;;;;1040274;28;20025;-59
2021/03/21 02:11:20;;;;;;;32.20;25.70;;;17.80;64.20;;;;;;1037941;28;20032;-59
2021/03/21 02:12:05;;;;;;;30.73;25.38;;;17.80;64.20;;;;;;1036563;28;20072;-59
2021/03/21 02:12:53;;;;;;;30.40;25.63;;;17.80;64.30;;;;;;1036242;28;20022;-59
2021/03/21 02:13:48;;;;;;;30.15;25.60;;;17.80;64.30;;;;;;1036453;28;20113;-59
2021/03/21 02:14:33;;;;;;;33.42;25.90;;;17.80;64.30;;;;;;1036208;28;20021;-59
2021/03/21 02:15:13;;;;;;;30.92;25.67;;;17.80;64.20;;;;;;1040559;28;20021;-59
2021/03/21 02:15:49;;;;;;;30.45;25.35;;;17.80;64.20;;;;;;1040301;28;20040;-59
2021/03/21 02:16:34;;;;;;;31.08;25.73;;;17.80;64.20;;;;;;1040507;28;20079;-59
2021/03/21 02:17:16;;;;;;;27.90;25.00;;;17.80;64.20;;;;;;1036572;28;20104;-59
2021/03/21 02:18:05;;;;;;;30.90;25.27;;;17.80;64.30;;;;;;1032774;28;20025;-60
2021/03/21 02:19:01;;;;;;;30.92;25.13;;;17.80;64.30;;;;;;1040373;28;20079;-58
2021/03/21 02:19:57;;;;;;;30.13;25.17;;;17.70;64.80;;;;;;1027883;28;20026;-60
2021/03/21 02:20:48;;;;;;;31.35;25.58;;;17.80;64.40;;;;;;1026248;28;20046;-59
2021/03/21 02:21:34;;;;;;;;;;;17.70;64.30;;;;;;1030888;28;20023;-59
2021/03/21 02:22:10;;;;;;;27.20;24.05;;;17.70;64.30;;;;;;1032467;28;19937;-60
2021/03/21 02:22:46;;;;;;;30.45;25.20;;;17.70;64.30;;;;;;1036274;28;20496;-59
2021/03/21 02:23:47;;;;;;;27.70;23.77;;;17.70;64.20;;;;;;1032414;28;20018;-59
2021/03/21 02:24:49;;;;;;;28.63;24.15;;;17.70;64.30;;;;;;1031704;28;20022;-58
2021/03/21 02:25:54;;;;;;;29.17;24.23;;;17.70;64.40;;;;;;1036445;28;20022;-59
2021/03/21 02:27:00;;;;;;;30.67;23.83;;;17.70;64.20;;;;;;1029288;28;20050;-59
2021/03/21 02:27:45;;;;;;;26.48;22.58;;;17.70;64.20;;;;;;1032772;28;20418;-59
2021/03/21 02:28:30;;;;;;;29.45;23.20;;;17.70;64.40;;;;;;1032552;28;20030;-59
2021/03/21 02:29:34;;;;;;;27.85;23.27;;;17.70;64.20;;;;;;1032625;28;20046;-58
2021/03/21 02:30:23;;;;;;;29.45;23.33;;;17.70;64.20;;;;;;1036433;28;20474;-59
2021/03/21 02:30:58;;;;;;;26.88;22.63;;;17.70;64.20;;;;;;1036298;28;20128;-60
2021/03/21 02:31:42;;;;;;;28.45;23.30;;;17.70;64.20;;;;;;1038639;28;20025;-58
2021/03/21 02:32:16;;;;;;;26.80;22.85;;;17.70;64.20;;;;;;1032810;28;20034;-59
2021/03/21 02:32:53;;;;;;;26.85;22.98;;;17.70;64.20;;;;;;1032690;28;20040;-59
2021/03/21 02:33:31;;;;;;;26.30;22.80;;;17.70;64.20;;;;;;1032380;28;20072;-60
2021/03/21 02:34:07;;;;;;;28.17;23.65;;;17.70;64.20;;;;;;1036182;28;20379;-59
2021/03/21 02:34:50;;;;;;;29.68;23.46;;;17.70;64.20;;;;;;1036245;28;20463;-59
2021/03/21 02:36:05;;;;;;;29.20;22.54;;;17.70;64.20;;;;;;1036398;28;20033;-59
2021/03/21 02:36:44;;;;;;;29.52;22.92;;;17.70;64.30;;;;;;1036197;28;20549;-59
2021/03/21 02:37:31;;;;;;;25.40;22.27;;;17.70;64.30;;;;;;1039558;28;20032;-59
2021/03/21 02:38:09;;;;;;;26.13;22.33;;;17.70;64.30;;;;;;1040377;28;20029;-59
2021/03/21 02:38:49;;;;;;;26.98;22.05;;;17.70;64.30;;;;;;1032699;28;20108;-60
2021/03/21 02:39:33;;;;;;;25.02;21.67;;;17.70;64.30;;;;;;1036070;28;20073;-59
2021/03/21 02:40:23;;;;;;;27.95;22.52;;;17.70;64.30;;;;;;1036174;28;20021;-59
2021/03/21 02:41:09;;;;;;;28.58;22.55;;;17.70;64.40;;;;;;1031902;28;20022;-59
2021/03/21 02:41:44;;;;;;;26.27;22.52;;;17.70;64.30;;;;;;1028760;28;20015;-59
2021/03/21 02:42:22;;;;;;;27.38;23.55;;;17.70;64.20;;;;;;1032241;28;20033;-59
2021/03/21 02:43:02;;;;;;;26.98;22.02;;;17.70;64.20;;;;;;1036054;28;20363;-59
2021/03/21 02:43:40;;;;;;;26.27;21.73;;;17.70;64.20;;;;;;1036188;28;20022;-59
2021/03/21 02:44:24;;;;;;;26.77;21.50;;;17.60;64.10;;;;;;1033230;28;20451;-60
2021/03/21 02:45:19;;;;;;;26.15;22.80;;;17.70;64.20;;;;;;1032481;28;20401;-59
2021/03/21 02:45:54;;;;;;;25.70;21.77;;;17.70;64.30;;;;;;1032592;28;20021;-59
2021/03/21 02:46:29;;;;;;;24.80;22.02;;;17.60;64.20;;;;;;1036330;28;20418;-57
2021/03/21 02:47:07;;;;;;;24.83;21.92;;;17.60;64.20;;;;;;1036065;28;20022;-60
2021/03/21 02:47:39;;;;;;;26.26;21.80;;;17.70;64.20;;;;;;1036219;28;20030;-60
2021/03/21 02:48:18;;;;;;;25.05;21.90;;;17.70;64.10;;;;;;1036384;28;20018;-59
2021/03/21 02:49:05;;;;;;;24.63;21.63;;;17.60;64.10;;;;;;1033831;28;20025;-59
2021/03/21 02:49:41;;;;;;;26.35;22.25;;;17.60;64.00;;;;;;1032298;28;20027;-60
2021/03/21 02:50:21;;;;;;;26.78;21.78;;;17.70;64.10;;;;;;1036074;28;20057;-59
2021/03/21 02:51:19;;;;;;;24.33;21.60;;;17.60;64.10;;;;;;1036234;28;20497;-59
2021/03/21 02:52:01;;;;;;;24.35;20.98;;;17.60;64.10;;;;;;1025677;28;20467;-59
2021/03/21 02:52:37;;;;;;;26.50;21.98;;;17.60;64.10;;;;;;1031099;28;20126;-59
2021/03/21 02:53:35;;;;;;;25.77;21.95;;;17.60;64.10;;;;;;1032334;28;20109;-59
2021/03/21 02:54:15;;;;;;;25.40;21.08;;;17.60;64.20;;;;;;1031708;28;20026;-59
2021/03/21 02:54:52;;;;;;;30.58;21.33;;;17.60;64.20;;;;;;1028326;28;20479;-60
2021/03/21 02:55:39;;;;;;;25.75;21.75;;;17.60;64.10;;;;;;1031509;28;20018;-60
2021/03/21 02:56:15;;;;;;;26.55;20.30;;;17.60;64.10;;;;;;1040272;28;20029;-60
2021/03/21 02:56:52;;;;;;;23.60;20.50;;;17.60;64.20;;;;;;1040180;28;20091;-60
2021/03/21 02:57:29;;;;;;;28.23;22.88;;;17.60;64.20;;;;;;1040513;28;20064;-58
2021/03/21 02:58:07;;;;;;;24.22;21.60;;;17.60;64.10;;;;;;1037709;28;20029;-59
2021/03/21 02:58:43;;;;;;;24.75;20.83;;;17.60;64.10;;;;;;1033296;28;20026;-58
2021/03/21 02:59:18;;;;;;;23.15;20.75;;;17.60;64.10;;;;;;1036294;28;20033;-58
2021/03/21 02:59:53;;;;;;;26.33;20.83;;;17.60;64.10;;;;;;1036280;28;20637;-59
2021/03/21 03:00:31;;;;;;;23.25;20.42;;;17.60;64.10;;;;;;1036091;28;20018;-59
2021/03/21 03:01:14;;;;;;;25.45;20.27;;;17.60;64.10;;;;;;1034127;28;20121;-60